sensor_id;sensor_type;location;lat;lon;timestamp;P1;durP1;ratioP1;P2;durP2;ratioP2
76167;SDS011;64927;48.214;16.378;2023-07-29T00:02:22;4.55;;;2.90;;
76167;SDS011;64927;48.214;16.378;2023-07-29T00:04:47;5.18;;;2.67;;
76167;SDS011;64927;48.214;16.378;2023-07-29T00:07:13;4.18;;;3.25;;
76167;SDS011;64927;48.214;16.378;2023-07-29T00:09:38;4.07;;;2.70;;
76167;SDS011;64927;48.214;16.378;2023-07-29T00:12:04;3.63;;;2.78;;
76167;SDS011;64927;48.214;16.378;2023-07-29T00:14:30;4.03;;;2.78;;
76167;SDS011;64927;48.214;16.378;2023-07-29T00:16:55;3.72;;;2.90;;
76167;SDS011;64927;48.214;16.378;2023-07-29T00:19:21;7.63;;;3.17;;
76167;SDS011;64927;48.214;16.378;2023-07-29T00:21:48;4.05;;;3.20;;
76167;SDS011;64927;48.214;16.378;2023-07-29T00:24:14;8.77;;;3.30;;
76167;SDS011;64927;48.214;16.378;2023-07-29T00:26:39;9.40;;;2.88;;
76167;SDS011;64927;48.214;16.378;2023-07-29T00:29:05;2.97;;;2.63;;
76167;SDS011;64927;48.214;16.378;2023-07-29T00:31:31;4.00;;;2.83;;
76167;SDS011;64927;48.214;16.378;2023-07-29T00:33:56;3.40;;;3.10;;
76167;SDS011;64927;48.214;16.378;2023-07-29T00:36:23;2.90;;;2.67;;
76167;SDS011;64927;48.214;16.378;2023-07-29T00:38:49;4.22;;;3.42;;
76167;SDS011;64927;48.214;16.378;2023-07-29T00:41:14;4.38;;;3.00;;
76167;SDS011;64927;48.214;16.378;2023-07-29T00:43:40;4.88;;;2.72;;
76167;SDS011;64927;48.214;16.378;2023-07-29T00:46:06;4.97;;;3.35;;
76167;SDS011;64927;48.214;16.378;2023-07-29T00:48:34;6.15;;;2.97;;
76167;SDS011;64927;48.214;16.378;2023-07-29T00:51:00;3.38;;;2.65;;
76167;SDS011;64927;48.214;16.378;2023-07-29T00:53:26;4.35;;;3.22;;
76167;SDS011;64927;48.214;16.378;2023-07-29T00:55:51;3.58;;;2.90;;
76167;SDS011;64927;48.214;16.378;2023-07-29T00:58:17;3.65;;;3.10;;
76167;SDS011;64927;48.214;16.378;2023-07-29T01:00:44;5.10;;;3.13;;
76167;SDS011;64927;48.214;16.378;2023-07-29T01:03:10;4.05;;;3.13;;
76167;SDS011;64927;48.214;16.378;2023-07-29T01:05:47;4.82;;;3.45;;
76167;SDS011;64927;48.214;16.378;2023-07-29T01:08:27;4.32;;;2.75;;
76167;SDS011;64927;48.214;16.378;2023-07-29T01:11:13;3.33;;;2.97;;
76167;SDS011;64927;48.214;16.378;2023-07-29T01:16:23;5.20;;;3.00;;
76167;SDS011;64927;48.214;16.378;2023-07-29T01:18:55;3.80;;;3.10;;
76167;SDS011;64927;48.214;16.378;2023-07-29T01:21:24;3.65;;;2.92;;
76167;SDS011;64927;48.214;16.378;2023-07-29T01:23:52;3.60;;;3.10;;
76167;SDS011;64927;48.214;16.378;2023-07-29T01:26:18;9.35;;;3.00;;
76167;SDS011;64927;48.214;16.378;2023-07-29T01:28:48;3.65;;;3.08;;
76167;SDS011;64927;48.214;16.378;2023-07-29T01:31:27;4.38;;;2.67;;
76167;SDS011;64927;48.214;16.378;2023-07-29T01:34:01;3.40;;;2.85;;
76167;SDS011;64927;48.214;16.378;2023-07-29T01:36:34;4.18;;;3.17;;
76167;SDS011;64927;48.214;16.378;2023-07-29T01:39:05;4.43;;;3.28;;
76167;SDS011;64927;48.214;16.378;2023-07-29T01:41:32;5.72;;;3.50;;
76167;SDS011;64927;48.214;16.378;2023-07-29T01:43:59;4.40;;;3.03;;
76167;SDS011;64927;48.214;16.378;2023-07-29T01:46:25;5.15;;;3.25;;
76167;SDS011;64927;48.214;16.378;2023-07-29T01:48:51;4.72;;;3.53;;
76167;SDS011;64927;48.214;16.378;2023-07-29T01:51:19;6.07;;;3.10;;
76167;SDS011;64927;48.214;16.378;2023-07-29T01:53:45;3.65;;;3.28;;
76167;SDS011;64927;48.214;16.378;2023-07-29T01:56:11;7.05;;;3.20;;
76167;SDS011;64927;48.214;16.378;2023-07-29T01:58:39;4.28;;;3.13;;
76167;SDS011;64927;48.214;16.378;2023-07-29T02:01:07;7.80;;;3.80;;
76167;SDS011;64927;48.214;16.378;2023-07-29T02:03:33;4.20;;;2.70;;
76167;SDS011;64927;48.214;16.378;2023-07-29T02:05:58;3.67;;;3.25;;
76167;SDS011;64927;48.214;16.378;2023-07-29T02:08:24;4.03;;;2.88;;
76167;SDS011;64927;48.214;16.378;2023-07-29T02:10:52;4.47;;;3.58;;
76167;SDS011;64927;48.214;16.378;2023-07-29T02:13:17;5.00;;;2.67;;
76167;SDS011;64927;48.214;16.378;2023-07-29T02:15:45;4.00;;;2.90;;
76167;SDS011;64927;48.214;16.378;2023-07-29T02:18:11;4.28;;;2.83;;
76167;SDS011;64927;48.214;16.378;2023-07-29T02:20:36;4.13;;;2.95;;
76167;SDS011;64927;48.214;16.378;2023-07-29T02:23:02;4.00;;;3.28;;
76167;SDS011;64927;48.214;16.378;2023-07-29T02:25:28;2.95;;;2.65;;
76167;SDS011;64927;48.214;16.378;2023-07-29T02:27:55;3.80;;;3.28;;
76167;SDS011;64927;48.214;16.378;2023-07-29T02:30:21;3.67;;;2.88;;
76167;SDS011;64927;48.214;16.378;2023-07-29T02:32:47;4.65;;;2.95;;
76167;SDS011;64927;48.214;16.378;2023-07-29T02:35:12;2.97;;;2.63;;
76167;SDS011;64927;48.214;16.378;2023-07-29T02:37:38;4.50;;;2.65;;
76167;SDS011;64927;48.214;16.378;2023-07-29T02:40:04;5.75;;;2.42;;
76167;SDS011;64927;48.214;16.378;2023-07-29T02:42:31;3.97;;;2.30;;
76167;SDS011;64927;48.214;16.378;2023-07-29T02:44:56;2.53;;;2.33;;
76167;SDS011;64927;48.214;16.378;2023-07-29T02:47:22;3.10;;;2.60;;
76167;SDS011;64927;48.214;16.378;2023-07-29T02:49:47;2.65;;;2.40;;
76167;SDS011;64927;48.214;16.378;2023-07-29T02:52:15;3.08;;;2.30;;
76167;SDS011;64927;48.214;16.378;2023-07-29T02:54:41;2.88;;;2.25;;
76167;SDS011;64927;48.214;16.378;2023-07-29T02:57:06;2.92;;;2.38;;
76167;SDS011;64927;48.214;16.378;2023-07-29T02:59:32;5.68;;;2.58;;
76167;SDS011;64927;48.214;16.378;2023-07-29T03:01:59;5.72;;;2.60;;
76167;SDS011;64927;48.214;16.378;2023-07-29T03:04:25;3.03;;;2.35;;
76167;SDS011;64927;48.214;16.378;2023-07-29T03:06:53;2.55;;;2.35;;
76167;SDS011;64927;48.214;16.378;2023-07-29T03:09:18;2.80;;;2.10;;
76167;SDS011;64927;48.214;16.378;2023-07-29T03:11:44;3.78;;;2.00;;
76167;SDS011;64927;48.214;16.378;2023-07-29T03:14:09;3.33;;;1.80;;
76167;SDS011;64927;48.214;16.378;2023-07-29T03:16:37;2.58;;;2.15;;
76167;SDS011;64927;48.214;16.378;2023-07-29T03:19:03;2.47;;;1.90;;
76167;SDS011;64927;48.214;16.378;2023-07-29T03:21:30;2.60;;;2.10;;
76167;SDS011;64927;48.214;16.378;2023-07-29T03:23:55;2.00;;;1.75;;
76167;SDS011;64927;48.214;16.378;2023-07-29T03:26:21;2.75;;;2.30;;
76167;SDS011;64927;48.214;16.378;2023-07-29T03:28:46;2.58;;;2.13;;
76167;SDS011;64927;48.214;16.378;2023-07-29T03:31:12;4.47;;;2.20;;
76167;SDS011;64927;48.214;16.378;2023-07-29T03:33:38;4.97;;;1.92;;
76167;SDS011;64927;48.214;16.378;2023-07-29T03:36:04;6.72;;;2.03;;
76167;SDS011;64927;48.214;16.378;2023-07-29T03:38:30;2.50;;;2.30;;
76167;SDS011;64927;48.214;16.378;2023-07-29T03:40:58;3.78;;;2.13;;
76167;SDS011;64927;48.214;16.378;2023-07-29T03:43:23;2.33;;;2.00;;
76167;SDS011;64927;48.214;16.378;2023-07-29T03:45:49;2.70;;;2.00;;
76167;SDS011;64927;48.214;16.378;2023-07-29T03:48:14;2.90;;;2.20;;
76167;SDS011;64927;48.214;16.378;2023-07-29T03:50:40;2.38;;;2.15;;
76167;SDS011;64927;48.214;16.378;2023-07-29T03:53:06;2.28;;;2.08;;
76167;SDS011;64927;48.214;16.378;2023-07-29T03:55:37;3.00;;;2.30;;
76167;SDS011;64927;48.214;16.378;2023-07-29T03:58:05;2.85;;;2.22;;
76167;SDS011;64927;48.214;16.378;2023-07-29T04:00:30;2.67;;;2.20;;
76167;SDS011;64927;48.214;16.378;2023-07-29T04:02:56;2.45;;;2.10;;
76167;SDS011;64927;48.214;16.378;2023-07-29T04:05:22;2.90;;;2.13;;
76167;SDS011;64927;48.214;16.378;2023-07-29T04:07:47;3.80;;;2.35;;
76167;SDS011;64927;48.214;16.378;2023-07-29T04:10:13;3.13;;;2.08;;
76167;SDS011;64927;48.214;16.378;2023-07-29T04:12:43;2.45;;;2.10;;
76167;SDS011;64927;48.214;16.378;2023-07-29T04:15:11;2.67;;;2.00;;
76167;SDS011;64927;48.214;16.378;2023-07-29T04:17:38;2.20;;;2.00;;
76167;SDS011;64927;48.214;16.378;2023-07-29T04:20:04;2.53;;;2.00;;
76167;SDS011;64927;48.214;16.378;2023-07-29T04:22:30;2.80;;;2.08;;
76167;SDS011;64927;48.214;16.378;2023-07-29T04:24:56;4.68;;;2.20;;
76167;SDS011;64927;48.214;16.378;2023-07-29T04:27:21;2.72;;;2.30;;
76167;SDS011;64927;48.214;16.378;2023-07-29T04:29:47;3.10;;;2.05;;
76167;SDS011;64927;48.214;16.378;2023-07-29T04:32:12;2.60;;;2.30;;
76167;SDS011;64927;48.214;16.378;2023-07-29T04:34:38;2.40;;;2.00;;
76167;SDS011;64927;48.214;16.378;2023-07-29T04:37:04;2.42;;;1.98;;
76167;SDS011;64927;48.214;16.378;2023-07-29T04:39:32;2.97;;;2.42;;
76167;SDS011;64927;48.214;16.378;2023-07-29T04:41:58;2.60;;;2.17;;
76167;SDS011;64927;48.214;16.378;2023-07-29T04:44:26;3.67;;;2.13;;
76167;SDS011;64927;48.214;16.378;2023-07-29T04:46:52;2.47;;;2.22;;
76167;SDS011;64927;48.214;16.378;2023-07-29T04:49:17;2.92;;;2.20;;
76167;SDS011;64927;48.214;16.378;2023-07-29T04:51:43;2.75;;;2.53;;
76167;SDS011;64927;48.214;16.378;2023-07-29T04:54:08;2.30;;;2.10;;
76167;SDS011;64927;48.214;16.378;2023-07-29T04:56:34;3.42;;;2.03;;
76167;SDS011;64927;48.214;16.378;2023-07-29T04:59:00;2.50;;;2.20;;
76167;SDS011;64927;48.214;16.378;2023-07-29T05:01:25;3.00;;;2.63;;
76167;SDS011;64927;48.214;16.378;2023-07-29T05:03:51;2.50;;;2.30;;
76167;SDS011;64927;48.214;16.378;2023-07-29T05:06:19;3.30;;;2.28;;
76167;SDS011;64927;48.214;16.378;2023-07-29T05:08:45;2.70;;;2.20;;
76167;SDS011;64927;48.214;16.378;2023-07-29T05:11:10;3.40;;;2.28;;
76167;SDS011;64927;48.214;16.378;2023-07-29T05:13:36;3.33;;;2.53;;
76167;SDS011;64927;48.214;16.378;2023-07-29T05:16:02;2.45;;;2.15;;
76167;SDS011;64927;48.214;16.378;2023-07-29T05:18:30;3.40;;;2.03;;
76167;SDS011;64927;48.214;16.378;2023-07-29T05:20:56;2.63;;;2.00;;
76167;SDS011;64927;48.214;16.378;2023-07-29T05:23:24;3.00;;;2.13;;
76167;SDS011;64927;48.214;16.378;2023-07-29T05:25:51;2.20;;;1.95;;
76167;SDS011;64927;48.214;16.378;2023-07-29T05:28:19;2.45;;;1.88;;
76167;SDS011;64927;48.214;16.378;2023-07-29T05:30:45;3.03;;;2.40;;
76167;SDS011;64927;48.214;16.378;2023-07-29T05:33:10;2.88;;;2.20;;
76167;SDS011;64927;48.214;16.378;2023-07-29T05:35:36;2.85;;;1.95;;
76167;SDS011;64927;48.214;16.378;2023-07-29T05:38:02;2.72;;;2.10;;
76167;SDS011;64927;48.214;16.378;2023-07-29T05:40:30;2.30;;;2.10;;
76167;SDS011;64927;48.214;16.378;2023-07-29T05:42:55;19.58;;;5.82;;
76167;SDS011;64927;48.214;16.378;2023-07-29T05:45:21;3.10;;;2.30;;
76167;SDS011;64927;48.214;16.378;2023-07-29T05:47:47;1.95;;;1.75;;
76167;SDS011;64927;48.214;16.378;2023-07-29T05:50:14;2.53;;;1.90;;
76167;SDS011;64927;48.214;16.378;2023-07-29T05:52:40;3.47;;;1.95;;
76167;SDS011;64927;48.214;16.378;2023-07-29T05:55:06;4.95;;;2.03;;
76167;SDS011;64927;48.214;16.378;2023-07-29T05:57:34;3.25;;;2.10;;
76167;SDS011;64927;48.214;16.378;2023-07-29T06:00:02;2.42;;;1.98;;
76167;SDS011;64927;48.214;16.378;2023-07-29T06:02:28;2.35;;;2.15;;
76167;SDS011;64927;48.214;16.378;2023-07-29T06:04:54;3.53;;;1.67;;
76167;SDS011;64927;48.214;16.378;2023-07-29T06:07:19;2.42;;;2.03;;
76167;SDS011;64927;48.214;16.378;2023-07-29T06:09:45;1.77;;;1.67;;
76167;SDS011;64927;48.214;16.378;2023-07-29T06:12:13;2.33;;;1.73;;
76167;SDS011;64927;48.214;16.378;2023-07-29T06:14:39;2.30;;;1.90;;
76167;SDS011;64927;48.214;16.378;2023-07-29T06:17:05;2.60;;;1.98;;
76167;SDS011;64927;48.214;16.378;2023-07-29T06:19:31;2.60;;;1.80;;
76167;SDS011;64927;48.214;16.378;2023-07-29T06:21:57;2.75;;;1.80;;
76167;SDS011;64927;48.214;16.378;2023-07-29T06:24:23;2.45;;;1.90;;
76167;SDS011;64927;48.214;16.378;2023-07-29T06:26:48;3.58;;;1.90;;
76167;SDS011;64927;48.214;16.378;2023-07-29T06:29:14;4.35;;;1.90;;
76167;SDS011;64927;48.214;16.378;2023-07-29T06:31:39;2.95;;;1.88;;
76167;SDS011;64927;48.214;16.378;2023-07-29T06:34:05;2.78;;;1.80;;
76167;SDS011;64927;48.214;16.378;2023-07-29T06:36:31;1.90;;;1.35;;
76167;SDS011;64927;48.214;16.378;2023-07-29T06:38:56;2.10;;;1.40;;
76167;SDS011;64927;48.214;16.378;2023-07-29T06:41:22;1.58;;;1.35;;
76167;SDS011;64927;48.214;16.378;2023-07-29T06:43:47;2.00;;;1.60;;
76167;SDS011;64927;48.214;16.378;2023-07-29T06:46:13;3.25;;;1.75;;
76167;SDS011;64927;48.214;16.378;2023-07-29T06:48:38;3.58;;;1.92;;
76167;SDS011;64927;48.214;16.378;2023-07-29T06:51:04;1.58;;;1.42;;
76167;SDS011;64927;48.214;16.378;2023-07-29T06:53:30;2.85;;;1.73;;
76167;SDS011;64927;48.214;16.378;2023-07-29T06:55:58;3.38;;;2.05;;
76167;SDS011;64927;48.214;16.378;2023-07-29T06:58:24;1.98;;;1.33;;
76167;SDS011;64927;48.214;16.378;2023-07-29T07:00:52;1.45;;;1.35;;
76167;SDS011;64927;48.214;16.378;2023-07-29T07:03:18;1.83;;;1.30;;
76167;SDS011;64927;48.214;16.378;2023-07-29T07:05:43;3.72;;;1.52;;
76167;SDS011;64927;48.214;16.378;2023-07-29T07:08:09;2.35;;;1.60;;
76167;SDS011;64927;48.214;16.378;2023-07-29T07:10:34;2.22;;;1.45;;
76167;SDS011;64927;48.214;16.378;2023-07-29T07:13:00;6.32;;;1.50;;
76167;SDS011;64927;48.214;16.378;2023-07-29T07:15:28;2.60;;;1.90;;
76167;SDS011;64927;48.214;16.378;2023-07-29T07:17:56;1.92;;;1.40;;
76167;SDS011;64927;48.214;16.378;2023-07-29T07:20:22;2.38;;;1.58;;
76167;SDS011;64927;48.214;16.378;2023-07-29T07:22:48;2.17;;;1.60;;
76167;SDS011;64927;48.214;16.378;2023-07-29T07:25:13;2.22;;;1.50;;
76167;SDS011;64927;48.214;16.378;2023-07-29T07:27:39;3.03;;;1.52;;
76167;SDS011;64927;48.214;16.378;2023-07-29T07:30:07;2.42;;;1.65;;
76167;SDS011;64927;48.214;16.378;2023-07-29T07:32:36;1.95;;;1.52;;
76167;SDS011;64927;48.214;16.378;2023-07-29T07:35:04;1.60;;;1.40;;
76167;SDS011;64927;48.214;16.378;2023-07-29T07:37:29;1.80;;;1.60;;
76167;SDS011;64927;48.214;16.378;2023-07-29T07:39:57;2.72;;;1.70;;
76167;SDS011;64927;48.214;16.378;2023-07-29T07:42:23;1.60;;;1.50;;
76167;SDS011;64927;48.214;16.378;2023-07-29T07:44:49;1.75;;;1.65;;
76167;SDS011;64927;48.214;16.378;2023-07-29T07:47:14;2.38;;;1.73;;
76167;SDS011;64927;48.214;16.378;2023-07-29T07:49:40;2.65;;;1.42;;
76167;SDS011;64927;48.214;16.378;2023-07-29T07:52:05;1.85;;;1.67;;
76167;SDS011;64927;48.214;16.378;2023-07-29T07:54:31;2.03;;;1.70;;
76167;SDS011;64927;48.214;16.378;2023-07-29T07:56:57;2.72;;;1.60;;
76167;SDS011;64927;48.214;16.378;2023-07-29T07:59:23;1.85;;;1.40;;
76167;SDS011;64927;48.214;16.378;2023-07-29T08:01:48;1.90;;;1.50;;
76167;SDS011;64927;48.214;16.378;2023-07-29T08:04:14;2.10;;;1.50;;
76167;SDS011;64927;48.214;16.378;2023-07-29T08:06:39;1.20;;;1.10;;
76167;SDS011;64927;48.214;16.378;2023-07-29T08:09:05;2.03;;;1.20;;
76167;SDS011;64927;48.214;16.378;2023-07-29T08:11:30;1.80;;;1.33;;
76167;SDS011;64927;48.214;16.378;2023-07-29T08:13:58;2.33;;;1.33;;
76167;SDS011;64927;48.214;16.378;2023-07-29T08:16:24;1.48;;;1.20;;
76167;SDS011;64927;48.214;16.378;2023-07-29T08:18:50;2.13;;;1.10;;
76167;SDS011;64927;48.214;16.378;2023-07-29T08:21:15;1.50;;;1.25;;
76167;SDS011;64927;48.214;16.378;2023-07-29T08:23:41;2.40;;;1.50;;
76167;SDS011;64927;48.214;16.378;2023-07-29T08:26:06;3.15;;;1.45;;
76167;SDS011;64927;48.214;16.378;2023-07-29T08:28:33;1.60;;;1.33;;
76167;SDS011;64927;48.214;16.378;2023-07-29T08:31:01;1.63;;;1.10;;
76167;SDS011;64927;48.214;16.378;2023-07-29T08:33:29;1.20;;;1.10;;
76167;SDS011;64927;48.214;16.378;2023-07-29T08:35:55;1.50;;;1.08;;
76167;SDS011;64927;48.214;16.378;2023-07-29T08:38:20;1.10;;;1.00;;
76167;SDS011;64927;48.214;16.378;2023-07-29T08:40:50;1.20;;;1.10;;
76167;SDS011;64927;48.214;16.378;2023-07-29T08:43:22;1.63;;;1.15;;
76167;SDS011;64927;48.214;16.378;2023-07-29T08:45:55;1.40;;;1.17;;
76167;SDS011;64927;48.214;16.378;2023-07-29T08:48:39;1.27;;;1.10;;
76167;SDS011;64927;48.214;16.378;2023-07-29T08:51:09;1.15;;;1.05;;
76167;SDS011;64927;48.214;16.378;2023-07-29T08:53:36;1.35;;;1.02;;
76167;SDS011;64927;48.214;16.378;2023-07-29T08:56:11;1.25;;;1.15;;
76167;SDS011;64927;48.214;16.378;2023-07-29T08:58:37;1.20;;;0.98;;
76167;SDS011;64927;48.214;16.378;2023-07-29T09:01:04;1.48;;;1.20;;
76167;SDS011;64927;48.214;16.378;2023-07-29T09:03:30;2.05;;;1.20;;
76167;SDS011;64927;48.214;16.378;2023-07-29T09:06:01;1.65;;;0.98;;
76167;SDS011;64927;48.214;16.378;2023-07-29T09:08:30;1.42;;;1.13;;
76167;SDS011;64927;48.214;16.378;2023-07-29T09:10:56;1.10;;;1.00;;
76167;SDS011;64927;48.214;16.378;2023-07-29T09:13:22;2.35;;;1.33;;
76167;SDS011;64927;48.214;16.378;2023-07-29T09:15:48;1.20;;;1.10;;
76167;SDS011;64927;48.214;16.378;2023-07-29T09:18:18;1.98;;;0.90;;
76167;SDS011;64927;48.214;16.378;2023-07-29T09:20:48;1.05;;;0.95;;
76167;SDS011;64927;48.214;16.378;2023-07-29T09:23:16;1.33;;;1.08;;
76167;SDS011;64927;48.214;16.378;2023-07-29T09:25:44;2.28;;;1.00;;
76167;SDS011;64927;48.214;16.378;2023-07-29T09:28:12;1.95;;;1.60;;
76167;SDS011;64927;48.214;16.378;2023-07-29T09:30:39;1.83;;;1.10;;
76167;SDS011;64927;48.214;16.378;2023-07-29T09:33:06;1.10;;;1.00;;
76167;SDS011;64927;48.214;16.378;2023-07-29T09:35:33;1.08;;;0.90;;
76167;SDS011;64927;48.214;16.378;2023-07-29T09:38:03;1.67;;;1.23;;
76167;SDS011;64927;48.214;16.378;2023-07-29T09:40:36;1.40;;;1.10;;
76167;SDS011;64927;48.214;16.378;2023-07-29T09:43:03;0.85;;;0.77;;
76167;SDS011;64927;48.214;16.378;2023-07-29T09:45:29;1.05;;;0.90;;
76167;SDS011;64927;48.214;16.378;2023-07-29T09:47:57;2.85;;;1.15;;
76167;SDS011;64927;48.214;16.378;2023-07-29T09:50:24;1.73;;;1.40;;
76167;SDS011;64927;48.214;16.378;2023-07-29T09:52:50;1.75;;;1.10;;
76167;SDS011;64927;48.214;16.378;2023-07-29T09:55:17;0.93;;;0.90;;
76167;SDS011;64927;48.214;16.378;2023-07-29T09:57:44;1.40;;;1.02;;
76167;SDS011;64927;48.214;16.378;2023-07-29T10:00:10;1.42;;;1.23;;
76167;SDS011;64927;48.214;16.378;2023-07-29T10:02:41;1.10;;;1.00;;
76167;SDS011;64927;48.214;16.378;2023-07-29T10:05:08;1.42;;;1.27;;
76167;SDS011;64927;48.214;16.378;2023-07-29T10:07:40;1.00;;;0.90;;
76167;SDS011;64927;48.214;16.378;2023-07-29T10:10:06;0.90;;;0.90;;
76167;SDS011;64927;48.214;16.378;2023-07-29T10:12:33;3.85;;;1.13;;
76167;SDS011;64927;48.214;16.378;2023-07-29T10:15:02;1.77;;;0.90;;
76167;SDS011;64927;48.214;16.378;2023-07-29T10:17:30;2.53;;;1.20;;
76167;SDS011;64927;48.214;16.378;2023-07-29T10:20:01;2.72;;;1.20;;
76167;SDS011;64927;48.214;16.378;2023-07-29T10:22:32;1.13;;;1.00;;
76167;SDS011;64927;48.214;16.378;2023-07-29T10:25:05;1.20;;;1.10;;
76167;SDS011;64927;48.214;16.378;2023-07-29T10:27:42;1.48;;;1.30;;
76167;SDS011;64927;48.214;16.378;2023-07-29T10:30:12;2.40;;;1.02;;
76167;SDS011;64927;48.214;16.378;2023-07-29T10:32:38;1.38;;;1.15;;
76167;SDS011;64927;48.214;16.378;2023-07-29T10:35:10;1.30;;;1.20;;
76167;SDS011;64927;48.214;16.378;2023-07-29T10:37:37;3.08;;;1.10;;
76167;SDS011;64927;48.214;16.378;2023-07-29T10:40:05;1.38;;;1.20;;
76167;SDS011;64927;48.214;16.378;2023-07-29T10:42:35;2.75;;;1.58;;
76167;SDS011;64927;48.214;16.378;2023-07-29T10:45:16;1.58;;;0.90;;
76167;SDS011;64927;48.214;16.378;2023-07-29T10:47:43;2.20;;;1.05;;
76167;SDS011;64927;48.214;16.378;2023-07-29T10:50:16;1.63;;;1.17;;
76167;SDS011;64927;48.214;16.378;2023-07-29T10:52:43;2.83;;;1.17;;
76167;SDS011;64927;48.214;16.378;2023-07-29T10:55:27;1.20;;;1.10;;
76167;SDS011;64927;48.214;16.378;2023-07-29T10:58:04;1.35;;;1.00;;
76167;SDS011;64927;48.214;16.378;2023-07-29T11:00:34;0.77;;;0.75;;
76167;SDS011;64927;48.214;16.378;2023-07-29T11:03:05;1.65;;;1.20;;
76167;SDS011;64927;48.214;16.378;2023-07-29T11:10:44;3.80;;;1.10;;
76167;SDS011;64927;48.214;16.378;2023-07-29T11:16:05;1.02;;;0.93;;
76167;SDS011;64927;48.214;16.378;2023-07-29T11:18:32;1.33;;;1.10;;
76167;SDS011;64927;48.214;16.378;2023-07-29T11:21:03;1.98;;;1.00;;
76167;SDS011;64927;48.214;16.378;2023-07-29T11:23:32;1.20;;;1.10;;
76167;SDS011;64927;48.214;16.378;2023-07-29T11:26:00;5.13;;;1.65;;
76167;SDS011;64927;48.214;16.378;2023-07-29T11:28:29;1.52;;;1.13;;
76167;SDS011;64927;48.214;16.378;2023-07-29T11:30:57;1.10;;;1.00;;
76167;SDS011;64927;48.214;16.378;2023-07-29T11:33:26;2.10;;;1.30;;
76167;SDS011;64927;48.214;16.378;2023-07-29T11:35:55;1.33;;;1.10;;
76167;SDS011;64927;48.214;16.378;2023-07-29T11:38:23;1.13;;;1.02;;
76167;SDS011;64927;48.214;16.378;2023-07-29T11:41:01;2.67;;;1.20;;
76167;SDS011;64927;48.214;16.378;2023-07-29T11:43:34;1.60;;;1.27;;
76167;SDS011;64927;48.214;16.378;2023-07-29T11:46:00;1.50;;;1.40;;
76167;SDS011;64927;48.214;16.378;2023-07-29T11:48:27;2.13;;;1.00;;
76167;SDS011;64927;48.214;16.378;2023-07-29T11:50:55;1.85;;;1.40;;
76167;SDS011;64927;48.214;16.378;2023-07-29T11:53:22;1.70;;;1.25;;
76167;SDS011;64927;48.214;16.378;2023-07-29T11:55:51;1.40;;;1.25;;
76167;SDS011;64927;48.214;16.378;2023-07-29T11:58:18;1.58;;;1.20;;
76167;SDS011;64927;48.214;16.378;2023-07-29T12:00:43;2.30;;;1.35;;
76167;SDS011;64927;48.214;16.378;2023-07-29T12:03:10;1.55;;;1.27;;
76167;SDS011;64927;48.214;16.378;2023-07-29T12:05:37;1.45;;;1.10;;
76167;SDS011;64927;48.214;16.378;2023-07-29T12:08:02;2.97;;;1.30;;
76167;SDS011;64927;48.214;16.378;2023-07-29T12:10:28;1.58;;;0.93;;
76167;SDS011;64927;48.214;16.378;2023-07-29T12:12:54;2.63;;;1.20;;
76167;SDS011;64927;48.214;16.378;2023-07-29T12:15:23;2.42;;;1.15;;
76167;SDS011;64927;48.214;16.378;2023-07-29T12:17:53;1.98;;;1.35;;
76167;SDS011;64927;48.214;16.378;2023-07-29T12:20:21;1.65;;;1.30;;
76167;SDS011;64927;48.214;16.378;2023-07-29T12:22:51;3.63;;;1.15;;
76167;SDS011;64927;48.214;16.378;2023-07-29T12:25:17;1.45;;;1.23;;
76167;SDS011;64927;48.214;16.378;2023-07-29T12:27:43;3.55;;;1.60;;
76167;SDS011;64927;48.214;16.378;2023-07-29T12:30:11;1.50;;;1.40;;
76167;SDS011;64927;48.214;16.378;2023-07-29T12:32:44;1.80;;;1.50;;
76167;SDS011;64927;48.214;16.378;2023-07-29T12:35:10;1.88;;;1.63;;
76167;SDS011;64927;48.214;16.378;2023-07-29T12:37:36;2.58;;;1.50;;
76167;SDS011;64927;48.214;16.378;2023-07-29T12:40:04;5.05;;;1.48;;
76167;SDS011;64927;48.214;16.378;2023-07-29T12:42:30;2.97;;;1.88;;
76167;SDS011;64927;48.214;16.378;2023-07-29T12:44:58;1.60;;;1.40;;
76167;SDS011;64927;48.214;16.378;2023-07-29T12:47:23;2.05;;;1.73;;
76167;SDS011;64927;48.214;16.378;2023-07-29T12:49:49;1.95;;;1.60;;
76167;SDS011;64927;48.214;16.378;2023-07-29T12:52:14;3.65;;;1.58;;
76167;SDS011;64927;48.214;16.378;2023-07-29T12:54:40;1.70;;;1.60;;
76167;SDS011;64927;48.214;16.378;2023-07-29T12:57:09;3.08;;;1.67;;
76167;SDS011;64927;48.214;16.378;2023-07-29T12:59:34;1.90;;;1.70;;
76167;SDS011;64927;48.214;16.378;2023-07-29T13:02:02;2.95;;;1.80;;
76167;SDS011;64927;48.214;16.378;2023-07-29T13:04:28;1.95;;;1.85;;
76167;SDS011;64927;48.214;16.378;2023-07-29T13:06:53;1.75;;;1.65;;
76167;SDS011;64927;48.214;16.378;2023-07-29T13:09:19;3.25;;;1.80;;
76167;SDS011;64927;48.214;16.378;2023-07-29T13:11:45;6.18;;;1.70;;
76167;SDS011;64927;48.214;16.378;2023-07-29T13:14:11;1.70;;;1.50;;
76167;SDS011;64927;48.214;16.378;2023-07-29T13:16:37;1.60;;;1.40;;
76167;SDS011;64927;48.214;16.378;2023-07-29T13:19:02;3.75;;;1.52;;
76167;SDS011;64927;48.214;16.378;2023-07-29T13:21:28;3.30;;;1.20;;
76167;SDS011;64927;48.214;16.378;2023-07-29T13:23:53;3.05;;;1.80;;
76167;SDS011;64927;48.214;16.378;2023-07-29T13:26:19;2.88;;;1.27;;
76167;SDS011;64927;48.214;16.378;2023-07-29T13:28:47;1.65;;;1.40;;
76167;SDS011;64927;48.214;16.378;2023-07-29T13:31:15;2.17;;;1.30;;
76167;SDS011;64927;48.214;16.378;2023-07-29T13:33:41;2.17;;;1.13;;
76167;SDS011;64927;48.214;16.378;2023-07-29T13:36:06;1.80;;;1.20;;
76167;SDS011;64927;48.214;16.378;2023-07-29T13:38:33;2.83;;;1.25;;
76167;SDS011;64927;48.214;16.378;2023-07-29T13:40:59;2.22;;;1.20;;
76167;SDS011;64927;48.214;16.378;2023-07-29T13:43:24;1.35;;;1.25;;
76167;SDS011;64927;48.214;16.378;2023-07-29T13:45:50;2.30;;;1.52;;
76167;SDS011;64927;48.214;16.378;2023-07-29T13:48:16;1.85;;;1.35;;
76167;SDS011;64927;48.214;16.378;2023-07-29T13:50:41;1.40;;;1.20;;
76167;SDS011;64927;48.214;16.378;2023-07-29T13:53:11;1.70;;;1.20;;
76167;SDS011;64927;48.214;16.378;2023-07-29T13:55:39;3.30;;;1.63;;
76167;SDS011;64927;48.214;16.378;2023-07-29T13:58:07;1.52;;;1.35;;
76167;SDS011;64927;48.214;16.378;2023-07-29T14:00:33;2.58;;;1.65;;
76167;SDS011;64927;48.214;16.378;2023-07-29T14:02:58;2.08;;;1.60;;
76167;SDS011;64927;48.214;16.378;2023-07-29T14:05:24;1.75;;;1.42;;
76167;SDS011;64927;48.214;16.378;2023-07-29T14:07:49;1.30;;;1.20;;
76167;SDS011;64927;48.214;16.378;2023-07-29T14:10:15;1.83;;;1.40;;
76167;SDS011;64927;48.214;16.378;2023-07-29T14:12:43;3.25;;;1.52;;
76167;SDS011;64927;48.214;16.378;2023-07-29T14:15:10;3.65;;;1.77;;
76167;SDS011;64927;48.214;16.378;2023-07-29T14:17:36;2.35;;;1.27;;
76167;SDS011;64927;48.214;16.378;2023-07-29T14:20:02;2.28;;;1.45;;
76167;SDS011;64927;48.214;16.378;2023-07-29T14:22:29;2.08;;;1.50;;
76167;SDS011;64927;48.214;16.378;2023-07-29T14:24:55;1.55;;;1.33;;
76167;SDS011;64927;48.214;16.378;2023-07-29T14:27:23;5.75;;;2.08;;
76167;SDS011;64927;48.214;16.378;2023-07-29T14:29:48;2.35;;;1.52;;
76167;SDS011;64927;48.214;16.378;2023-07-29T14:32:14;1.63;;;1.45;;
76167;SDS011;64927;48.214;16.378;2023-07-29T14:34:42;1.65;;;1.48;;
76167;SDS011;64927;48.214;16.378;2023-07-29T14:37:07;1.75;;;1.45;;
76167;SDS011;64927;48.214;16.378;2023-07-29T14:39:33;1.90;;;1.65;;
76167;SDS011;64927;48.214;16.378;2023-07-29T14:41:59;1.70;;;1.35;;
76167;SDS011;64927;48.214;16.378;2023-07-29T14:44:27;2.58;;;1.95;;